Time;durP1;ratioP1;P1;durP2;ratioP2;P2;SDS_P1;SDS_P2;PMS_P1;PMS_P2;Temp;Humidity;BMP_temperature;BMP_pressure;BME280_temperature;BME280_humidity;BME280_pressure;Samples;Min_cycle;Max_cycle;Signal;HPM_P1;HPM_P2
2021/09/18 00:02:22;;;;;;;6.35;1.10;;;10.60;99.90;;;;;;4920237;29;20119;-96
2021/09/18 00:04:48;;;;;;;2.00;1.00;;;10.60;99.90;;;;;;4920257;29;20079;-95
2021/09/18 00:07:14;;;;;;;3.05;1.10;;;10.50;99.90;;;;;;4920136;29;20059;-93
2021/09/18 00:09:40;;;;;;;3.40;1.10;;;10.50;99.90;;;;;;4920263;29;20114;-96
2021/09/18 00:12:06;;;;;;;5.53;1.10;;;10.50;99.90;;;;;;4920968;29;20143;-96
2021/09/18 00:14:32;;;;;;;5.88;1.38;;;10.40;99.90;;;;;;4919882;29;20135;-95
2021/09/18 00:16:58;;;;;;;2.50;1.55;;;10.40;99.90;;;;;;4920645;29;20086;-96
2021/09/18 00:19:24;;;;;;;4.10;1.27;;;10.40;99.90;;;;;;4919830;29;20478;-95
2021/09/18 00:21:49;;;;;;;4.25;0.70;;;10.40;99.90;;;;;;4919665;29;20087;-94
2021/09/18 00:24:15;;;;;;;4.25;1.25;;;10.30;99.90;;;;;;4919833;29;20047;-95
2021/09/18 00:26:41;;;;;;;5.45;2.25;;;10.30;99.90;;;;;;4920172;29;20048;-95
2021/09/18 00:29:07;;;;;;;4.07;1.40;;;10.20;99.90;;;;;;4920360;29;20043;-93
2021/09/18 00:31:32;;;;;;;4.45;1.60;;;10.20;99.90;;;;;;4919257;29;20047;-93
2021/09/18 00:33:58;;;;;;;3.45;1.50;;;10.20;99.90;;;;;;4919641;29;20054;-93
2021/09/18 00:36:24;;;;;;;4.93;1.80;;;10.10;99.90;;;;;;4919763;29;20551;-95
2021/09/18 00:38:50;;;;;;;2.30;1.70;;;10.10;99.90;;;;;;4904434;29;20579;-96
2021/09/18 00:41:16;;;;;;;10.25;2.78;;;10.10;99.90;;;;;;4919860;29;20102;-93
2021/09/18 00:43:41;;;;;;;3.25;1.70;;;10.10;99.90;;;;;;4919953;29;20059;-96
2021/09/18 00:46:07;;;;;;;2.20;1.80;;;10.00;99.90;;;;;;4920112;29;20051;-94
2021/09/18 00:48:33;;;;;;;5.20;1.85;;;10.10;99.90;;;;;;4918967;29;20067;-94
2021/09/18 00:50:59;;;;;;;3.22;1.70;;;10.00;99.90;;;;;;4919558;29;20499;-93
2021/09/18 00:53:25;;;;;;;5.13;1.70;;;10.00;99.90;;;;;;4919091;29;20051;-95
2021/09/18 00:55:50;;;;;;;5.53;2.00;;;10.00;99.90;;;;;;4919549;29;20047;-93
2021/09/18 00:58:17;;;;;;;3.97;2.10;;;10.00;99.90;;;;;;4918977;29;20051;-94
2021/09/18 01:00:42;;;;;;;4.90;1.98;;;10.00;99.90;;;;;;4919193;29;20052;-93
2021/09/18 01:03:08;;;;;;;4.20;1.70;;;10.00;99.90;;;;;;4919306;29;20615;-93
2021/09/18 01:05:36;;;;;;;5.45;1.80;;;9.90;99.90;;;;;;4918664;29;20048;-92
2021/09/18 01:08:03;;;;;;;5.82;1.70;;;9.90;99.90;;;;;;4919278;29;20051;-93
2021/09/18 01:10:29;;;;;;;2.78;1.60;;;9.90;99.90;;;;;;4918763;29;20043;-93
2021/09/18 01:13:03;;;;;;;5.47;2.03;;;9.80;99.90;;;;;;4919339;29;20540;-93
2021/09/18 01:15:31;;;;;;;4.20;2.08;;;9.80;99.90;;;;;;4918940;29;20047;-95
2021/09/18 01:17:58;;;;;;;2.15;1.80;;;9.70;99.90;;;;;;4919151;29;20054;-93
2021/09/18 01:20:26;;;;;;;26.23;1.80;;;9.70;99.90;;;;;;4915176;29;20103;-93
2021/09/18 01:22:52;;;;;;;5.75;1.60;;;9.70;99.90;;;;;;4916215;29;20052;-95
2021/09/18 01:25:18;;;;;;;8.82;2.15;;;9.70;99.90;;;;;;4900508;29;20044;-95
2021/09/18 01:27:48;;;;;;;5.50;2.63;;;9.80;99.90;;;;;;4900102;29;20059;-94
2021/09/18 01:30:19;;;;;;;3.95;2.95;;;9.80;99.90;;;;;;4900318;29;20047;-94
2021/09/18 01:32:45;;;;;;;6.70;3.05;;;9.80;99.90;;;;;;4900022;29;20503;-94
2021/09/18 01:35:10;;;;;;;3.33;3.00;;;9.80;99.90;;;;;;4899952;29;20040;-94
2021/09/18 01:37:36;;;;;;;7.10;3.40;;;9.70;99.90;;;;;;4899786;29;20051;-93
2021/09/18 01:40:03;;;;;;;13.52;3.50;;;9.70;99.90;;;;;;4899964;29;20040;-94
2021/09/18 01:42:29;;;;;;;3.38;3.08;;;9.70;99.90;;;;;;4899165;29;20052;-94
2021/09/18 01:44:55;;;;;;;4.13;2.97;;;9.60;99.90;;;;;;4899646;29;20046;-95
2021/09/18 01:47:20;;;;;;;7.63;3.28;;;9.60;99.90;;;;;;4915911;29;20174;-94
2021/09/18 01:49:46;;;;;;;7.63;3.20;;;9.60;99.90;;;;;;4899640;29;20051;-95
2021/09/18 01:52:35;;;;;;;8.23;3.63;;;9.70;99.90;;;;;;4915909;29;20078;-94
2021/09/18 01:55:01;;;;;;;4.25;3.35;;;9.70;99.90;;;;;;4915467;29;20493;-95
2021/09/18 01:57:27;;;;;;;9.20;3.50;;;9.70;99.90;;;;;;4931114;29;20044;-94
2021/09/18 01:59:53;;;;;;;8.55;3.47;;;9.70;99.90;;;;;;4899869;29;20048;-95
2021/09/18 02:02:18;;;;;;;3.53;2.63;;;9.60;99.90;;;;;;4884605;29;20134;-95
2021/09/18 02:04:44;;;;;;;6.22;3.05;;;9.60;99.90;;;;;;4884059;29;20095;-94
2021/09/18 02:07:10;;;;;;;7.05;3.20;;;9.50;99.90;;;;;;4899918;29;20099;-96
2021/09/18 02:09:36;;;;;;;4.15;3.17;;;9.50;99.90;;;;;;4883486;29;20059;-95
2021/09/18 02:12:02;;;;;;;6.88;3.63;;;9.50;99.90;;;;;;4884131;29;20131;-94
2021/09/18 02:14:28;;;;;;;14.00;3.60;;;9.50;99.90;;;;;;4930577;29;20040;-94
2021/09/18 02:16:53;;;;;;;8.93;3.00;;;9.50;99.90;;;;;;4884426;29;20055;-96
2021/09/18 02:19:19;;;;;;;10.00;2.58;;;9.50;99.90;;;;;;4899609;29;20048;-94
2021/09/18 02:21:45;;;;;;;21.85;2.92;;;9.50;99.90;;;;;;4930454;29;20110;-96
2021/09/18 02:24:11;;;;;;;3.78;3.47;;;9.50;99.90;;;;;;4884110;29;20500;-95
2021/09/18 02:26:36;;;;;;;9.10;3.22;;;9.50;99.90;;;;;;4930769;29;20204;-94
2021/09/18 02:29:02;;;;;;;4.60;3.22;;;9.50;99.90;;;;;;4915343;29;20048;-96
2021/09/18 02:31:28;;;;;;;3.53;2.78;;;9.50;99.90;;;;;;4899155;29;20040;-92
2021/09/18 02:33:53;;;;;;;7.88;2.90;;;9.60;99.90;;;;;;4899501;29;20143;-96
2021/09/18 02:36:19;;;;;;;5.72;3.75;;;9.60;99.90;;;;;;4915078;29;20063;-96
2021/09/18 02:38:44;;;;;;;17.23;3.72;;;9.60;99.90;;;;;;4914956;29;20055;-96
2021/09/18 02:41:10;;;;;;;4.78;2.75;;;9.70;99.90;;;;;;4915283;29;20572;-95
2021/09/18 02:43:36;;;;;;;2.75;2.53;;;9.70;99.90;;;;;;4899494;29;20071;-94
2021/09/18 02:46:01;;;;;;;3.55;3.20;;;9.60;99.90;;;;;;4884345;29;20047;-94
2021/09/18 02:48:27;;;;;;;3.25;2.92;;;9.60;99.90;;;;;;4899620;29;20497;-93
2021/09/18 02:50:53;;;;;;;7.35;3.10;;;9.60;99.90;;;;;;4899271;29;20092;-93
2021/09/18 02:53:18;;;;;;;5.95;3.15;;;9.70;99.90;;;;;;4930928;29;20051;-93
2021/09/18 02:55:44;;;;;;;6.18;3.35;;;9.70;99.90;;;;;;4898813;29;20076;-94
2021/09/18 02:58:10;;;;;;;6.03;2.92;;;9.60;99.90;;;;;;4899400;29;20052;-94
2021/09/18 03:00:35;;;;;;;4.28;3.10;;;9.60;99.90;;;;;;4899309;29;20613;-94
2021/09/18 03:03:01;;;;;;;5.07;3.20;;;9.60;99.90;;;;;;4884139;29;20059;-94
2021/09/18 03:05:27;;;;;;;4.38;3.38;;;9.70;99.90;;;;;;4914657;29;20052;-94
2021/09/18 03:07:52;;;;;;;4.20;3.78;;;9.60;99.90;;;;;;4899365;29;20086;-94
2021/09/18 03:10:18;;;;;;;9.18;3.72;;;9.70;99.90;;;;;;4883995;29;20123;-94
2021/09/18 03:12:44;;;;;;;4.45;2.97;;;9.60;99.90;;;;;;4898966;29;20052;-94
2021/09/18 03:15:11;;;;;;;9.40;4.03;;;9.60;99.90;;;;;;4930573;29;20052;-94
2021/09/18 03:17:37;;;;;;;3.67;2.88;;;9.70;99.90;;;;;;4883232;29;20522;-94
2021/09/18 03:20:04;;;;;;;5.15;3.50;;;9.70;99.90;;;;;;4916726;29;20048;-96
2021/09/18 03:22:30;;;;;;;6.05;3.38;;;9.70;99.90;;;;;;4921415;29;20052;-94
2021/09/18 03:24:56;;;;;;;6.22;3.30;;;9.60;99.90;;;;;;4921316;29;20694;-94
2021/09/18 03:27:22;;;;;;;4.20;3.65;;;9.60;99.90;;;;;;4921343;29;20040;-94
2021/09/18 03:29:47;;;;;;;3.28;3.00;;;9.60;99.90;;;;;;4920787;29;20058;-95
2021/09/18 03:32:13;;;;;;;6.72;3.55;;;9.60;99.90;;;;;;4920986;29;20043;-94
2021/09/18 03:34:39;;;;;;;5.55;3.33;;;9.60;99.90;;;;;;4920658;29;20046;-96
2021/09/18 03:37:05;;;;;;;3.53;3.22;;;9.60;99.90;;;;;;4921157;29;20106;-95
2021/09/18 03:39:30;;;;;;;3.28;3.08;;;9.60;99.90;;;;;;4920633;29;20051;-93
2021/09/18 03:41:56;;;;;;;3.80;3.35;;;9.60;99.90;;;;;;4920955;29;20066;-94
2021/09/18 03:44:22;;;;;;;3.30;2.75;;;9.60;99.90;;;;;;4926439;29;20543;-96
2021/09/18 03:46:49;;;;;;;3.08;2.83;;;9.60;99.90;;;;;;4921262;29;20673;-95
2021/09/18 03:49:14;;;;;;;6.15;3.78;;;9.60;99.90;;;;;;4920974;29;20051;-95
2021/09/18 03:51:40;;;;;;;4.55;4.15;;;9.60;99.90;;;;;;4904787;29;20408;-93
2021/09/18 03:54:06;;;;;;;8.45;4.30;;;9.60;99.90;;;;;;4920553;29;20560;-95
2021/09/18 03:56:32;;;;;;;12.15;5.13;;;9.60;99.90;;;;;;4920689;29;20054;-93
2021/09/18 03:58:57;;;;;;;14.90;5.10;;;9.60;99.90;;;;;;4920936;29;20212;-95
2021/09/18 04:01:23;;;;;;;6.47;3.72;;;9.60;99.90;;;;;;4920723;29;20043;-94
2021/09/18 04:03:48;;;;;;;6.05;4.43;;;9.60;99.90;;;;;;4920658;29;20044;-96
2021/09/18 04:06:14;;;;;;;4.45;4.05;;;9.60;99.90;;;;;;4904884;29;20067;-93
2021/09/18 04:08:40;;;;;;;11.23;5.68;;;9.60;99.90;;;;;;4919996;29;20044;-93
2021/09/18 04:11:06;;;;;;;7.07;4.95;;;9.60;99.90;;;;;;4889645;29;20135;-95
2021/09/18 04:13:31;;;;;;;15.70;5.22;;;9.60;99.90;;;;;;4904556;29;20470;-93
2021/09/18 04:15:57;;;;;;;6.90;4.38;;;9.60;99.90;;;;;;4919643;29;20052;-92
2021/09/18 04:18:23;;;;;;;5.13;4.50;;;9.60;99.90;;;;;;4919870;29;20481;-93
2021/09/18 04:20:48;;;;;;;9.48;4.95;;;9.60;99.90;;;;;;4919266;29;20488;-94
2021/09/18 04:23:14;;;;;;;8.63;4.15;;;9.50;99.90;;;;;;4920670;29;20112;-95
2021/09/18 04:25:40;;;;;;;6.90;4.40;;;9.50;99.90;;;;;;4920419;29;20468;-94
2021/09/18 04:28:05;;;;;;;4.80;4.22;;;9.50;99.90;;;;;;4920660;29;20044;-94
2021/09/18 04:30:31;;;;;;;11.70;4.05;;;9.50;99.90;;;;;;4920285;29;20480;-95
2021/09/18 04:32:57;;;;;;;8.23;4.53;;;9.40;99.90;;;;;;4920221;29;20134;-94
2021/09/18 04:35:22;;;;;;;7.85;4.45;;;9.40;99.90;;;;;;4920079;29;20039;-94
2021/09/18 04:37:48;;;;;;;6.97;4.47;;;9.40;99.90;;;;;;4904015;29;20047;-94
2021/09/18 04:40:14;;;;;;;10.02;4.75;;;9.40;99.90;;;;;;4920380;29;20082;-94
2021/09/18 04:42:40;;;;;;;5.20;3.97;;;9.30;99.90;;;;;;4919967;29;20052;-93
2021/09/18 04:45:07;;;;;;;8.95;5.03;;;9.30;99.90;;;;;;4920007;29;20061;-94
2021/09/18 04:47:33;;;;;;;6.80;4.30;;;9.30;99.90;;;;;;4919335;29;20135;-93
2021/09/18 04:49:58;;;;;;;6.13;3.42;;;9.20;99.90;;;;;;4919468;29;20139;-94
2021/09/18 04:52:24;;;;;;;3.88;3.35;;;9.20;99.90;;;;;;4919629;29;20676;-92
2021/09/18 04:54:53;;;;;;;7.50;4.03;;;9.20;99.90;;;;;;4903557;29;20048;-95
2021/09/18 04:57:19;;;;;;;6.75;4.20;;;9.20;99.90;;;;;;4904189;29;20093;-93
2021/09/18 04:59:44;;;;;;;12.27;5.35;;;9.10;99.90;;;;;;4919121;29;20051;-93
2021/09/18 05:02:10;;;;;;;9.98;4.82;;;9.10;99.90;;;;;;4904233;29;20058;-93
2021/09/18 05:04:36;;;;;;;9.63;5.82;;;9.20;99.90;;;;;;4919085;29;20086;-93
2021/09/18 05:07:01;;;;;;;11.40;7.40;;;9.20;99.90;;;;;;4903480;29;20055;-94
2021/09/18 05:09:27;;;;;;;12.60;7.70;;;9.30;99.90;;;;;;4919408;29;20503;-93
2021/09/18 05:11:53;;;;;;;16.20;7.90;;;9.30;99.90;;;;;;4919204;29;20642;-95
2021/09/18 05:14:18;;;;;;;21.95;10.95;;;9.40;99.90;;;;;;4919352;29;20082;-95
2021/09/18 05:16:44;;;;;;;22.20;11.43;;;9.50;99.90;;;;;;4918549;29;20060;-94
2021/09/18 05:19:10;;;;;;;23.83;10.55;;;9.50;99.90;;;;;;4903349;29;20056;-94
2021/09/18 05:21:35;;;;;;;19.95;9.13;;;9.60;99.90;;;;;;4918917;29;20052;-95
2021/09/18 05:24:01;;;;;;;12.48;8.15;;;9.60;99.90;;;;;;4903584;29;20052;-94
2021/09/18 05:26:27;;;;;;;19.02;8.25;;;9.60;99.90;;;;;;4903661;29;20047;-94
2021/09/18 05:28:52;;;;;;;19.52;10.57;;;9.60;99.90;;;;;;4918760;29;20404;-93
2021/09/18 05:31:18;;;;;;;19.08;10.23;;;9.70;99.90;;;;;;4919205;29;20039;-93
2021/09/18 05:33:44;;;;;;;17.00;10.10;;;9.70;99.90;;;;;;4918466;29;20055;-94
2021/09/18 05:36:10;;;;;;;14.60;10.25;;;9.70;99.90;;;;;;4918579;29;20425;-92
2021/09/18 05:38:35;;;;;;;16.90;10.90;;;9.80;99.90;;;;;;4919099;29;20131;-92
2021/09/18 05:41:01;;;;;;;21.45;11.93;;;9.80;99.90;;;;;;4918358;29;20496;-91
2021/09/18 05:43:27;;;;;;;25.20;14.25;;;9.90;99.90;;;;;;4918081;29;20551;-91
2021/09/18 05:45:52;;;;;;;26.05;13.93;;;10.10;99.90;;;;;;4902595;29;20047;-92
2021/09/18 05:48:18;;;;;;;22.65;13.07;;;10.20;99.90;;;;;;4918694;29;20523;-91
2021/09/18 05:50:44;;;;;;;43.25;16.70;;;10.20;99.90;;;;;;4918388;29;20093;-93
2021/09/18 05:53:10;;;;;;;27.23;14.00;;;10.30;99.90;;;;;;4918972;29;20051;-92
2021/09/18 05:55:36;;;;;;;20.85;13.15;;;10.40;99.90;;;;;;4918812;29;20589;-91
2021/09/18 05:58:01;;;;;;;26.20;12.82;;;10.50;99.90;;;;;;4918326;29;20087;-93
2021/09/18 06:00:27;;;;;;;14.80;8.90;;;10.60;99.90;;;;;;4919062;29;20481;-93
2021/09/18 06:02:53;;;;;;;14.02;8.63;;;10.70;99.90;;;;;;4918640;29;20055;-92
2021/09/18 06:05:18;;;;;;;19.27;9.68;;;10.70;99.90;;;;;;4919173;29;20154;-92
2021/09/18 06:07:44;;;;;;;32.13;9.63;;;10.80;99.90;;;;;;4902636;29;20050;-92
2021/09/18 06:10:11;;;;;;;12.82;6.95;;;10.90;99.90;;;;;;4903214;29;20098;-94
2021/09/18 06:12:36;;;;;;;16.88;8.82;;;11.00;99.90;;;;;;4918828;29;20047;-94
2021/09/18 06:15:03;;;;;;;11.32;7.88;;;11.00;99.90;;;;;;4902338;29;20098;-93
2021/09/18 06:17:29;;;;;;;18.23;9.63;;;11.10;99.90;;;;;;4918420;29;20091;-93
2021/09/18 06:19:54;;;;;;;22.70;9.93;;;11.20;99.90;;;;;;4918045;29;20051;-92
2021/09/18 06:22:20;;;;;;;21.17;9.43;;;11.30;99.90;;;;;;4918542;29;20052;-93
2021/09/18 06:24:46;;;;;;;16.27;9.63;;;11.40;99.90;;;;;;4918133;29;20055;-93
2021/09/18 06:27:12;;;;;;;13.82;9.13;;;11.40;99.90;;;;;;4902779;29;20062;-93
2021/09/18 06:29:37;;;;;;;13.57;7.47;;;11.50;99.90;;;;;;4918553;29;20043;-94
2021/09/18 06:32:07;;;;;;;12.13;7.60;;;11.60;99.90;;;;;;4917962;29;20388;-91
2021/09/18 06:34:37;;;;;;;13.48;8.02;;;11.60;99.90;;;;;;4918428;29;20044;-92
2021/09/18 06:37:04;;;;;;;12.40;6.47;;;11.70;99.90;;;;;;4918141;29;20051;-92
2021/09/18 06:39:29;;;;;;;9.30;6.25;;;11.80;99.90;;;;;;4918199;29;20153;-92
2021/09/18 06:41:55;;;;;;;11.07;5.00;;;11.80;99.90;;;;;;4917828;29;20079;-91
2021/09/18 06:44:21;;;;;;;20.48;7.03;;;11.90;99.90;;;;;;4902819;29;20044;-91
2021/09/18 06:46:46;;;;;;;13.80;6.50;;;12.00;99.90;;;;;;4917687;29;20569;-91
2021/09/18 06:49:12;;;;;;;7.88;5.13;;;12.00;99.90;;;;;;4918382;29;20055;-92
2021/09/18 06:51:38;;;;;;;18.17;4.75;;;12.10;99.90;;;;;;4902354;29;20139;-92
2021/09/18 06:54:03;;;;;;;9.20;3.92;;;12.10;99.90;;;;;;4919104;29;20393;-93
2021/09/18 06:56:29;;;;;;;11.00;4.38;;;12.10;99.90;;;;;;4921894;29;20123;-92
2021/09/18 06:58:56;;;;;;;7.93;4.00;;;12.10;99.90;;;;;;4921507;29;20103;-92
2021/09/18 07:01:27;;;;;;;30.23;5.53;;;12.10;99.90;;;;;;4921782;29;20489;-91
2021/09/18 07:03:55;;;;;;;16.38;3.90;;;12.20;99.90;;;;;;4921186;29;20054;-93
2021/09/18 07:06:21;;;;;;;4.88;3.28;;;12.20;99.90;;;;;;4921895;29;20047;-93
2021/09/18 07:08:47;;;;;;;4.45;3.45;;;12.30;99.90;;;;;;4921239;29;20104;-93
2021/09/18 07:11:13;;;;;;;39.00;4.28;;;12.30;99.90;;;;;;4921924;29;20110;-92
2021/09/18 07:13:39;;;;;;;5.80;3.55;;;12.40;99.90;;;;;;4921718;29;20503;-92
2021/09/18 07:16:05;;;;;;;19.25;3.25;;;12.40;99.90;;;;;;4921029;29;20039;-91
2021/09/18 07:18:32;;;;;;;15.55;3.63;;;12.40;99.90;;;;;;4921619;29;20047;-92
2021/09/18 07:20:58;;;;;;;6.63;3.15;;;12.50;99.90;;;;;;4920805;29;20139;-91
2021/09/18 07:23:24;;;;;;;17.92;3.83;;;12.60;99.90;;;;;;4921161;29;20052;-92
2021/09/18 07:25:50;;;;;;;23.98;4.85;;;12.70;99.90;;;;;;4919852;29;20500;-92
2021/09/18 07:28:16;;;;;;;25.45;4.18;;;12.70;99.90;;;;;;4904202;29;20058;-93
2021/09/18 07:30:42;;;;;;;8.93;4.05;;;12.90;99.90;;;;;;4903941;29;20210;-93
2021/09/18 07:33:07;;;;;;;13.93;3.40;;;12.90;99.90;;;;;;4903994;29;20048;-92
2021/09/18 07:35:33;;;;;;;29.95;3.47;;;13.00;99.90;;;;;;4919920;29;20051;-92
2021/09/18 07:38:03;;;;;;;5.95;2.65;;;13.00;99.90;;;;;;4919727;29;20039;-92
2021/09/18 07:40:30;;;;;;;5.75;3.05;;;13.10;99.90;;;;;;4921155;29;20048;-94
2021/09/18 07:42:56;;;;;;;2.75;1.95;;;13.10;99.90;;;;;;4920748;29;20052;-93
2021/09/18 07:45:22;;;;;;;7.50;1.90;;;13.10;99.90;;;;;;4921222;29;20365;-93
2021/09/18 07:47:47;;;;;;;4.07;2.33;;;13.10;99.90;;;;;;4905100;29;20055;-92
2021/09/18 07:50:13;;;;;;;7.20;2.30;;;13.20;99.90;;;;;;4905392;29;20111;-92
2021/09/18 07:52:39;;;;;;;8.57;2.67;;;13.20;99.90;;;;;;4921142;29;20044;-94
2021/09/18 07:55:07;;;;;;;5.43;2.00;;;13.30;99.90;;;;;;4920777;29;20055;-94
2021/09/18 07:57:32;;;;;;;5.38;2.17;;;13.50;99.90;;;;;;4921148;29;20095;-93
2021/09/18 07:59:58;;;;;;;15.30;2.13;;;13.60;99.90;;;;;;4920498;29;20083;-93
2021/09/18 08:02:24;;;;;;;9.30;3.22;;;13.60;99.90;;;;;;4921488;29;20043;-93
2021/09/18 08:04:50;;;;;;;5.70;1.50;;;13.70;99.90;;;;;;4920473;29;20048;-93
2021/09/18 08:07:18;;;;;;;1.30;1.20;;;13.70;99.90;;;;;;4920281;29;20091;-94
2021/09/18 08:09:44;;;;;;;4.03;1.27;;;13.80;99.90;;;;;;4905329;29;20044;-94
2021/09/18 08:12:09;;;;;;;7.47;1.30;;;13.90;99.90;;;;;;4919795;29;20055;-93
2021/09/18 08:14:35;;;;;;;1.02;1.00;;;14.00;99.90;;;;;;4905053;29;20048;-93
2021/09/18 08:17:01;;;;;;;3.90;1.02;;;14.10;99.90;;;;;;4919793;29;20476;-93
2021/09/18 08:19:27;;;;;;;6.85;1.00;;;14.10;99.90;;;;;;4920336;29;20051;-91
2021/09/18 08:21:52;;;;;;;4.47;0.57;;;14.20;99.90;;;;;;4903471;29;20056;-93
2021/09/18 08:24:18;;;;;;;0.90;0.65;;;14.20;99.90;;;;;;4920577;29;20081;-93
2021/09/18 08:26:45;;;;;;;1.15;0.40;;;14.20;99.90;;;;;;4920182;29;20048;-93
2021/09/18 08:29:11;;;;;;;2.15;0.50;;;14.30;99.90;;;;;;4920031;29;20089;-93
2021/09/18 08:31:36;;;;;;;3.67;0.70;;;14.40;99.90;;;;;;4920306;29;20138;-93
2021/09/18 08:34:02;;;;;;;2.75;0.70;;;14.40;99.90;;;;;;4904171;29;20063;-93
2021/09/18 08:36:28;;;;;;;0.45;0.40;;;14.40;99.90;;;;;;4919756;29;20106;-93
2021/09/18 08:38:53;;;;;;;3.65;0.50;;;14.50;99.90;;;;;;4919633;29;20083;-92
2021/09/18 08:41:20;;;;;;;0.93;0.40;;;14.50;99.90;;;;;;4919925;29;20512;-92
2021/09/18 08:43:45;;;;;;;4.45;0.50;;;14.60;99.90;;;;;;4920083;29;20055;-94
2021/09/18 08:46:11;;;;;;;2.60;0.60;;;14.70;99.90;;;;;;4904403;29;20048;-93
2021/09/18 08:48:40;;;;;;;1.30;0.50;;;14.70;99.90;;;;;;4888616;29;20051;-94
2021/09/18 08:51:06;;;;;;;0.90;0.50;;;14.70;99.90;;;;;;4918655;29;20563;-93
2021/09/18 08:53:32;;;;;;;2.00;0.60;;;14.80;99.90;;;;;;4919339;29;20168;-94
2021/09/18 08:55:58;;;;;;;1.88;0.68;;;14.80;99.90;;;;;;4903176;29;20179;-95
2021/09/18 08:58:25;;;;;;;2.83;0.45;;;15.00;99.90;;;;;;4919105;29;20051;-95
2021/09/18 09:00:55;;;;;;;1.10;0.50;;;15.00;99.90;;;;;;4919073;29;20135;-93
2021/09/18 09:03:27;;;;;;;2.90;0.52;;;15.10;99.90;;;;;;4919236;29;20070;-95
2021/09/18 09:06:11;;;;;;;0.22;0.22;;;15.20;99.90;;;;;;4918949;29;20107;-93
2021/09/18 09:08:40;;;;;;;4.97;0.57;;;15.30;99.90;;;;;;4919416;29;20055;-95
2021/09/18 09:11:19;;;;;;;0.93;0.50;;;15.30;99.90;;;;;;4918756;29;20043;-95
2021/09/18 09:14:04;;;;;;;6.68;0.70;;;15.30;99.90;;;;;;4919075;29;20074;-96
2021/09/18 09:16:32;;;;;;;1.00;0.50;;;15.40;99.90;;;;;;4918173;29;20044;-95
2021/09/18 09:18:59;;;;;;;0.82;0.40;;;15.50;99.90;;;;;;4916999;29;20048;-96
2021/09/18 09:21:29;;;;;;;0.98;0.60;;;15.60;99.90;;;;;;4915307;29;20112;-95
2021/09/18 09:24:11;;;;;;;2.13;0.55;;;15.60;99.90;;;;;;4915902;29;20052;-94
2021/09/18 09:26:58;;;;;;;1.70;0.57;;;15.70;99.90;;;;;;4915939;29;20048;-95
2021/09/18 09:29:45;;;;;;;1.98;0.40;;;15.80;99.90;;;;;;4905894;29;20084;-95
2021/09/18 09:32:32;;;;;;;0.55;0.55;;;15.80;99.90;;;;;;4915603;29;20489;-95
2021/09/18 09:35:00;;;;;;;0.63;0.40;;;15.90;99.90;;;;;;4915377;29;20048;-95
2021/09/18 09:37:26;;;;;;;3.60;0.50;;;16.00;99.90;;;;;;4915938;29;20048;-96
2021/09/18 09:39:58;;;;;;;2.85;0.60;;;16.10;99.90;;;;;;4915821;29;20613;-95
2021/09/18 09:42:30;;;;;;;2.97;0.50;;;16.20;99.90;;;;;;4931626;29;20052;-96
2021/09/18 09:45:18;;;;;;;2.28;0.60;;;16.20;99.90;;;;;;4915875;29;20405;-94
2021/09/18 09:47:46;;;;;;;1.80;0.43;;;16.30;99.90;;;;;;4915959;29;20055;-95
2021/09/18 09:50:13;;;;;;;0.50;0.50;;;16.40;99.90;;;;;;4915459;29;20052;-95
2021/09/18 09:52:45;;;;;;;3.00;0.45;;;16.50;99.90;;;;;;4900153;29;20063;-96
2021/09/18 09:55:12;;;;;;;2.38;0.65;;;16.50;99.90;;;;;;4915516;29;20481;-92
2021/09/18 09:57:43;;;;;;;2.35;0.73;;;16.60;99.90;;;;;;4915686;29;20393;-93
2021/09/18 10:00:12;;;;;;;0.73;0.43;;;16.70;99.90;;;;;;4915223;29;20048;-93
2021/09/18 10:02:39;;;;;;;3.22;0.75;;;16.80;99.90;;;;;;4915662;29;20379;-92
2021/09/18 10:05:11;;;;;;;5.53;1.10;;;16.90;99.90;;;;;;4899251;29;20393;-94
2021/09/18 10:07:38;;;;;;;2.85;0.88;;;17.00;99.90;;;;;;4915631;29;20078;-94
2021/09/18 10:10:06;;;;;;;1.30;1.00;;;17.10;99.90;;;;;;4899593;29;20054;-93
2021/09/18 10:12:33;;;;;;;4.35;1.05;;;17.20;99.90;;;;;;4900062;29;20051;-92
2021/09/18 10:15:04;;;;;;;2.60;0.90;;;17.20;99.90;;;;;;4914632;29;20131;-95
2021/09/18 10:17:33;;;;;;;2.17;1.05;;;17.30;99.90;;;;;;4915708;29;20048;-93
2021/09/18 10:20:08;;;;;;;0.93;0.77;;;17.30;99.90;;;;;;4899567;29;20048;-94
2021/09/18 10:25:33;;;;;;;1.02;0.88;;;17.50;99.90;;;;;;4915003;29;20634;-93
2021/09/18 10:28:09;;;;;;;1.10;1.02;;;17.60;99.90;;;;;;4900253;29;20045;-94
2021/09/18 10:30:45;;;;;;;0.50;0.45;;;17.60;99.90;;;;;;4918374;29;20441;-93
2021/09/18 10:33:37;;;;;;;3.60;0.60;;;17.70;99.90;;;;;;4934274;29;20485;-93
2021/09/18 10:36:09;;;;;;;1.55;0.73;;;17.80;99.90;;;;;;4918165;29;20043;-93
2021/09/18 10:38:38;;;;;;;0.60;0.50;;;17.80;99.90;;;;;;4919554;29;20131;-93
2021/09/18 10:41:08;;;;;;;1.27;0.68;;;17.90;99.90;;;;;;4918898;29;20139;-95
2021/09/18 10:43:42;;;;;;;0.93;0.68;;;17.90;99.90;;;;;;4919104;29;20107;-94
2021/09/18 10:46:30;;;;;;;2.95;0.70;;;18.00;99.90;;;;;;4918819;29;20052;-92
2021/09/18 10:48:57;;;;;;;0.93;0.57;;;18.00;99.90;;;;;;4907614;29;20062;-96
2021/09/18 10:51:34;;;;;;;1.23;0.60;;;18.10;99.90;;;;;;4885797;29;20044;-94
2021/09/18 10:54:18;;;;;;;1.17;0.73;;;18.10;99.90;;;;;;4917000;29;20149;-96
2021/09/18 10:57:05;;;;;;;0.73;0.73;;;18.10;99.90;;;;;;4902189;29;20509;-94
2021/09/18 10:59:51;;;;;;;2.80;0.90;;;18.20;99.90;;;;;;4918290;29;20123;-94
2021/09/18 11:02:32;;;;;;;1.65;1.00;;;18.20;99.90;;;;;;4917589;29;20063;-94
2021/09/18 11:04:59;;;;;;;3.53;1.17;;;18.30;99.90;;;;;;4918600;29;20048;-94
2021/09/18 11:07:40;;;;;;;0.90;0.90;;;18.40;99.90;;;;;;4918400;29;20123;-95
2021/09/18 11:10:12;;;;;;;1.10;0.98;;;18.50;99.90;;;;;;4918496;29;20052;-95
2021/09/18 11:12:38;;;;;;;1.13;1.00;;;18.50;99.90;;;;;;4918804;29;20068;-95
2021/09/18 11:15:07;;;;;;;1.13;0.98;;;18.60;99.90;;;;;;4902719;29;20044;-95
2021/09/18 11:17:37;;;;;;;1.10;1.00;;;18.60;99.90;;;;;;4918891;29;20065;-94
2021/09/18 11:20:18;;;;;;;1.55;0.77;;;18.60;99.90;;;;;;4903499;29;20048;-95
2021/09/18 11:22:45;;;;;;;0.60;0.60;;;18.70;99.90;;;;;;4918252;29;20063;-94
2021/09/18 11:25:33;;;;;;;0.98;0.82;;;18.60;99.90;;;;;;4887237;29;20477;-93
2021/09/18 11:28:17;;;;;;;1.20;0.80;;;18.60;99.90;;;;;;4918589;29;20056;-93
2021/09/18 11:30:53;;;;;;;1.15;0.90;;;18.60;99.90;;;;;;4902576;29;20556;-94
2021/09/18 11:33:22;;;;;;;0.80;0.80;;;18.70;99.90;;;;;;4918203;29;20048;-93
2021/09/18 11:36:04;;;;;;;3.13;0.90;;;18.70;99.90;;;;;;4902122;29;20047;-92
2021/09/18 11:38:33;;;;;;;0.70;0.70;;;18.90;99.90;;;;;;4918139;29;20150;-93
2021/09/18 11:41:06;;;;;;;0.80;0.77;;;19.10;99.90;;;;;;4917067;29;20063;-93
2021/09/18 11:43:32;;;;;;;0.98;0.90;;;19.20;99.90;;;;;;4918175;29;20285;-93
2021/09/18 11:45:58;;;;;;;1.83;1.13;;;19.30;99.90;;;;;;4902496;29;20405;-93
2021/09/18 11:48:25;;;;;;;0.90;0.90;;;19.50;99.90;;;;;;4886471;29;20048;-94
2021/09/18 11:50:52;;;;;;;1.00;0.95;;;19.70;99.90;;;;;;4887144;29;20111;-94
2021/09/18 11:53:18;;;;;;;1.02;0.95;;;19.90;99.90;;;;;;4933411;29;20052;-94
2021/09/18 11:55:47;;;;;;;0.77;0.77;;;20.20;99.90;;;;;;4902189;29;20044;-94
2021/09/18 11:58:19;;;;;;;2.17;0.93;;;20.50;99.90;;;;;;4917579;29;20099;-94
2021/09/18 12:01:10;;;;;;;0.88;0.80;;;20.70;99.90;;;;;;4901960;29;20052;-94
2021/09/18 12:03:43;;;;;;;1.02;1.00;;;20.70;99.90;;;;;;4917494;29;20507;-93
2021/09/18 12:06:17;;;;;;;1.27;0.70;;;21.10;99.90;;;;;;4917388;29;20056;-96
2021/09/18 12:08:45;;;;;;;0.80;0.80;;;21.30;99.90;;;;;;4917661;29;20048;-93
2021/09/18 12:11:17;;;;;;;2.60;0.90;;;21.50;99.90;;;;;;4917519;29;20082;-96
2021/09/18 12:13:43;;;;;;;1.83;1.20;;;21.60;99.90;;;;;;4887020;29;20131;-93
2021/09/18 12:16:11;;;;;;;1.02;0.70;;;21.80;99.90;;;;;;4917034;29;20080;-95
2021/09/18 12:18:39;;;;;;;0.80;0.80;;;21.90;99.90;;;;;;4900600;29;20056;-94
2021/09/18 12:21:09;;;;;;;1.08;0.85;;;22.00;99.90;;;;;;4916944;29;20060;-93
2021/09/18 12:23:42;;;;;;;2.38;0.93;;;22.00;99.90;;;;;;4917282;29;20131;-94
2021/09/18 12:26:07;;;;;;;1.15;0.80;;;22.00;99.90;;;;;;4901841;29;20050;-95
2021/09/18 12:28:34;;;;;;;0.95;0.80;;;21.90;99.90;;;;;;4917147;29;20131;-94
2021/09/18 12:31:12;;;;;;;0.80;0.80;;;22.00;99.90;;;;;;4901798;29;20460;-94
2021/09/18 12:33:38;;;;;;;1.73;1.05;;;22.10;99.90;;;;;;4917158;29;20059;-95
2021/09/18 12:36:07;;;;;;;0.75;0.75;;;22.10;99.90;;;;;;4884987;29;20405;-94
2021/09/18 12:38:34;;;;;;;1.52;0.80;;;22.20;99.90;;;;;;4916763;29;20164;-94
2021/09/18 12:41:04;;;;;;;1.15;0.82;;;22.20;99.90;;;;;;4917175;29;20056;-92
2021/09/18 12:43:30;;;;;;;3.40;1.00;;;22.40;99.90;;;;;;4916773;29;20056;-94
2021/09/18 12:46:10;;;;;;;1.15;0.60;;;22.10;99.90;;;;;;4901431;29;20044;-93
2021/09/18 12:48:37;;;;;;;0.70;0.70;;;22.00;99.90;;;;;;4916874;29;20055;-94
2021/09/18 12:51:18;;;;;;;0.80;0.80;;;22.10;99.90;;;;;;4916840;29;20056;-94
2021/09/18 12:53:52;;;;;;;1.17;0.88;;;21.80;99.90;;;;;;4916896;29;20055;-94
2021/09/18 12:56:27;;;;;;;5.25;1.05;;;21.90;99.90;;;;;;4900853;29;20044;-94